San Diego, CA

1:38 PM PST on February 20, 2017 (GMT -0800)
Union Square Condominiums | | Change Station

Elev 79 ft 32.72 °N, 117.15 °W | Updated 6 minutes ago

Scattered Clouds
Scattered Clouds
71.4 °F
Feels Like 76 °F
N
2.2
Wind Variable Wind from North

Today
High -- | Low -- °F
--% Chance of Precip.
Yesterday
High -- | Low -- °F
Precip. -- in
Pressure 30.25 in
Visibility 10.0 miles
Clouds Scattered Clouds 3500 ft
Scattered Clouds 4400 ft
Heat Index 76 °F
Dew Point 55 °F
Humidity 56%
Rainfall 0.00 in
Snow Depth Not available.
6:26 AM 5:38 PM
Waning Crescent, 31% visible
METAR KSAN 202051Z 22007KT 10SM SCT035 SCT044 19/09 A3025 RMK AO2 SLP243 T01940089 58016
Pressure 30.25 in
Visibility 10.0 miles
Clouds Scattered Clouds 3500 ft
Scattered Clouds 4400 ft
Heat Index 76 °F
Dew Point 55 °F
Humidity 56%
Rainfall 0.00 in
Snow Depth Not available.
6:26 AM 5:38 PM
Waning Crescent, 31% visible
METAR KSAN 202051Z 22007KT 10SM SCT035 SCT044 19/09 A3025 RMK AO2 SLP243 T01940089 58016

Get Your Daily Forecast Email!

Thanks for signing up!

Be on the lookout for a verification email in your inbox.

You'll start receiving the daily forecast at 8 AM.

×

10-Day Weather Forecast

Almanac

Astronomy

Feb. 20, 2017 Rise Set
Actual Time
Civil Twilight
Nautical Twilight
Astronomical Twilight
Moon
Length of Visible Light
Length of Day
Tomorrow will be .
, % of the Moon is Illuminated

Today's Extremes

State Highs State Lows

Community

WunderPhotos

Upload Photos

1,962,540 photos uploaded!

WunderBlog® & News

Nearby

Air Quality

  Air Quality AQ Index Pollutant
Not available.

Snow Depth

Station Depth Elevation

Earthquake Activity

City Distance Mag. Time & Date
Minimum magnitude displayed is 2.5.

Coastal Water Temperatures

Place Temperature

Stations

Nearby Weather Stations

Station Location Temp. Windchill Dew Point Humidity Wind Precip. Elev Updated Type
                   

Watches & Warnings

There are currently no watches in effect.